Amagansett, NY

6:12 AM EST on December 22, 2014 (GMT -0500)
Three Mile Harbor | Change Station
CLOSE
Current Station
Personal Weather Station
Location: East Hampton, NY
Elevation: 16 ft
Nearby Weather Stations

Elev 16 ft 41.02 °N, 72.18 °W | Updated 10 minutes ago

Overcast
Overcast
39.3 °F
Feels Like 39 °F
N
2.0
Wind Variable Wind from ENE
Gusts 8.0 mph

Today
High -- | Low -- °F
--% Chance of Precip.
Yesterday
High -- | Low -- °F
Precip. -- in
7:10 AM 4:24 PM
New Moon, 0% visible
Pressure 30.33 in
Visibility 7.0 miles
Clouds Overcast 4800 ft
Windchill 39 °F
Dew Point 37 °F
Humidity 92%
Rainfall 0.02 in
Snow Depth Not available.
UV 0 out of 12
Pollen .10 out of 12
Air Quality Not available.
Flu Activity Not available.
METAR KGON 221056Z AUTO 01007KT 7SM OVC048 01/00 A3033 RMK AO2 SLP270 T00110000

More Conditions Fewer Conditions

Pressure 30.33 in
Visibility 7.0 miles
Clouds Overcast 4800 ft
Windchill 39 °F
Dew Point 37 °F
Humidity 92%
Rainfall 0.02 in
Snow Depth Not available.
UV 0 out of 12
Pollen .10 out of 12
Air Quality Not available.
Flu Activity Not available.
METAR KGON 221056Z AUTO 01007KT 7SM OVC048 01/00 A3033 RMK AO2 SLP270 T00110000

More Conditions Fewer Conditions

10-Day Weather Forecast

Almanac

Astronomy

Dec. 22, 2014 Rise Set
Actual Time
Civil Twilight
Nautical Twilight
Astronomical Twilight
Moon
Length of Visible Light
Length of Day
Tomorrow will be .
, % of the Moon is Illuminated

Today's Extremes

State Highs State Lows

Community

WunderPhotos

Upload Photos

1,779,583 photos uploaded!

WunderBlogs® & News

Nearby

Air Quality

  Air Quality AQ Index Pollutant
Not available.

Snow Depth

Station Depth Elevation

Earthquake Activity

City Distance Mag. Time & Date
Minimum magnitude displayed is 2.5.

Coastal Water Temperatures

Place Temperature

Nearby Weather Stations